Morgan, TX (76671)

7:53 AM CDT on August 02, 2015 (GMT -0500)
Harris 424 Ranch | | Change Station
CLOSE
Current Station
Personal Weather Station
Location: Walnut Springs, TX
Elevation: 810 ft
Nearby Weather Stations

Elev 810 ft 32.13 °N, 97.67 °W | Updated 58 seconds ago

Mostly Cloudy
Mostly Cloudy
79.1 °F
Feels Like 81 °F
N
0.0
Wind Variable Wind from SSE
Gusts 0.0 mph

Today
High -- | Low -- °F
--% Chance of Precip.
Yesterday
High -- | Low -- °F
Precip. -- in
6:46 AM 8:26 PM
Waning Gibbous, 94% visible
Pressure 29.96 in
Visibility 10.0 miles
Clouds Clear
Heat Index 81 °F
Dew Point 63 °F
Humidity 57%
Rainfall 0.00 in
Snow Depth Not available.
UV 0 out of 12
Pollen 6.30 out of 12
Air Quality Not available.
Flu Activity Not available.
METAR KINJ 021235Z AUTO 16003KT 10SM CLR 25/15 A2996 RMK AO2 T02490146

More Conditions Fewer Conditions

Pressure 29.96 in
Visibility 10.0 miles
Clouds Clear
Heat Index 81 °F
Dew Point 63 °F
Humidity 57%
Rainfall 0.00 in
Snow Depth Not available.
UV 0 out of 12
Pollen 6.30 out of 12
Air Quality Not available.
Flu Activity Not available.
METAR KINJ 021235Z AUTO 16003KT 10SM CLR 25/15 A2996 RMK AO2 T02490146

More Conditions Fewer Conditions

Nowcast | as of 5:58 am CDT on August 2, 2015

Widely scattered light showers or sprinkles will occur along and west of a Bridgeport...to Mineral Wells...to Hamilton line through mid morning. Only a few hundredths to a trace of rainfall will occur with this activity. Otherwise...warm conditions will prevail with light east or southeast winds 5 to 10 mph. Skies will range from mostly cloudy west...to mostly clear east.

×

10-Day Weather Forecast

×

Almanac

Astronomy

Aug. 02, 2015 Rise Set
Actual Time
Civil Twilight
Nautical Twilight
Astronomical Twilight
Moon
Length of Visible Light
Length of Day
Tomorrow will be .
, % of the Moon is Illuminated

Today's Extremes

State Highs State Lows

Community

WunderPhotos

Upload Photos

1,843,238 photos uploaded!

WunderBlogs® & News

Nearby

Air Quality

  Air Quality AQ Index Pollutant
Not available.

Snow Depth

Station Depth Elevation

Earthquake Activity

City Distance Mag. Time & Date
Minimum magnitude displayed is 2.5.

Coastal Water Temperatures

Place Temperature

Stations

Nearby Weather Stations

Station Location Temp. Windchill Dew Point Humidity Wind Precip. Elev Updated Type